Plympton, Massachusetts
Current Conditions -  °F | °C
As of 1:52 AM on Sunday 23 Nov 2014 (Local Time) from KPYM Reporting Station
Overcast Overcast  
Wind Chill: 39°   Ceiling: 9000
Heat Index: 46°   Visibility: 10mi
Dew Point: 29°   Wind: 16mph
Humidity: 51%   Direction: 240°WSW
Pressure: 30.1"   Gusts: 24mph
Location:  41.95°N, 70.81°W
Report Text: KPYM 230652Z AUTO 24014G21KT 10SM FEW070 OVC090 08/M02 A3010 RMK AO2 SLP193 T00781017
Loading
Personal Weather Stations






























Interactive Weather Map New forecast layout! Learn more

10-Day Weather Forecast

Advertisements
Track Severe Weather on mobile